sensor_id;sensor_type;location;lat;lon;timestamp;pressure;altitude;pressure_sealevel;temperature;humidity
71361;BME280;59166;48.908;1.870;2023-02-15T00:03:05;101444.94;;;4.81;90.48
71361;BME280;59166;48.908;1.870;2023-02-15T00:08:06;101437.97;;;4.87;90.75
71361;BME280;59166;48.908;1.870;2023-02-15T00:13:08;101426.31;;;4.94;92.69
71361;BME280;59166;48.908;1.870;2023-02-15T00:18:09;101422.84;;;5.00;92.35
71361;BME280;59166;48.908;1.870;2023-02-15T00:23:10;101415.06;;;5.05;90.70
71361;BME280;59166;48.908;1.870;2023-02-15T00:28:13;101405.75;;;5.01;90.94
71361;BME280;59166;48.908;1.870;2023-02-15T00:33:14;101399.72;;;4.93;93.24
71361;BME280;59166;48.908;1.870;2023-02-15T00:38:14;101409.47;;;4.72;91.20
71361;BME280;59166;48.908;1.870;2023-02-15T00:43:17;101401.09;;;4.54;93.88
71361;BME280;59166;48.908;1.870;2023-02-15T00:48:18;101398.56;;;4.46;91.44
71361;BME280;59166;48.908;1.870;2023-02-15T00:53:19;101385.78;;;4.42;91.65
71361;BME280;59166;48.908;1.870;2023-02-15T00:58:22;101397.44;;;4.34;91.19
71361;BME280;59166;48.908;1.870;2023-02-15T01:03:22;101383.50;;;4.17;94.24
71361;BME280;59166;48.908;1.870;2023-02-15T01:08:24;101385.69;;;4.07;96.22
71361;BME280;59166;48.908;1.870;2023-02-15T01:13:26;101387.84;;;3.97;95.99
71361;BME280;59166;48.908;1.870;2023-02-15T01:18:27;101391.91;;;3.93;100.00
71361;BME280;59166;48.908;1.870;2023-02-15T01:23:28;101388.22;;;3.73;98.81
71361;BME280;59166;48.908;1.870;2023-02-15T01:28:31;101383.41;;;3.68;100.00
71361;BME280;59166;48.908;1.870;2023-02-15T01:33:32;101382.66;;;3.53;100.00
71361;BME280;59166;48.908;1.870;2023-02-15T01:38:34;101387.16;;;3.53;100.00
71361;BME280;59166;48.908;1.870;2023-02-15T01:43:46;101387.63;;;3.42;100.00
71361;BME280;59166;48.908;1.870;2023-02-15T01:48:50;101388.84;;;3.39;100.00
71361;BME280;59166;48.908;1.870;2023-02-15T01:53:57;101383.97;;;3.43;100.00
71361;BME280;59166;48.908;1.870;2023-02-15T01:59:05;101377.41;;;3.45;100.00
71361;BME280;59166;48.908;1.870;2023-02-15T02:04:12;101379.25;;;3.45;100.00
71361;BME280;59166;48.908;1.870;2023-02-15T02:09:15;101362.59;;;3.43;99.62
71361;BME280;59166;48.908;1.870;2023-02-15T02:14:18;101367.66;;;3.38;99.39
71361;BME280;59166;48.908;1.870;2023-02-15T02:19:52;101364.44;;;3.42;98.79
71361;BME280;59166;48.908;1.870;2023-02-15T02:25:11;101351.53;;;3.46;98.21
71361;BME280;59166;48.908;1.870;2023-02-15T02:30:40;101352.28;;;3.40;98.22
71361;BME280;59166;48.908;1.870;2023-02-15T02:36:25;101346.72;;;3.05;98.89
71361;BME280;59166;48.908;1.870;2023-02-15T02:42:07;101354.06;;;2.59;100.00
71361;BME280;59166;48.908;1.870;2023-02-15T02:47:34;101349.19;;;2.34;100.00
71361;BME280;59166;48.908;1.870;2023-02-15T02:52:41;101343.84;;;2.34;100.00
71361;BME280;59166;48.908;1.870;2023-02-15T02:58:04;101344.69;;;2.34;100.00
71361;BME280;59166;48.908;1.870;2023-02-15T03:03:10;101345.25;;;2.44;100.00
71361;BME280;59166;48.908;1.870;2023-02-15T03:08:16;101346.28;;;2.58;100.00
71361;BME280;59166;48.908;1.870;2023-02-15T03:13:19;101333.50;;;2.68;100.00
71361;BME280;59166;48.908;1.870;2023-02-15T03:18:22;101343.16;;;2.69;100.00
71361;BME280;59166;48.908;1.870;2023-02-15T03:23:28;101335.16;;;2.69;99.91
71361;BME280;59166;48.908;1.870;2023-02-15T03:28:35;101331.19;;;2.65;99.24
71361;BME280;59166;48.908;1.870;2023-02-15T03:33:40;101346.53;;;2.63;99.46
71361;BME280;59166;48.908;1.870;2023-02-15T03:38:49;101346.63;;;2.40;99.99
71361;BME280;59166;48.908;1.870;2023-02-15T03:43:53;101342.81;;;2.20;100.00
71361;BME280;59166;48.908;1.870;2023-02-15T03:49:00;101334.34;;;2.17;100.00
71361;BME280;59166;48.908;1.870;2023-02-15T03:54:07;101340.97;;;2.21;100.00
71361;BME280;59166;48.908;1.870;2023-02-15T03:59:08;101342.91;;;2.27;100.00
71361;BME280;59166;48.908;1.870;2023-02-15T04:04:13;101336.94;;;2.25;100.00
71361;BME280;59166;48.908;1.870;2023-02-15T04:09:16;101343.53;;;2.14;100.00
71361;BME280;59166;48.908;1.870;2023-02-15T04:14:16;101334.50;;;2.00;100.00
71361;BME280;59166;48.908;1.870;2023-02-15T04:19:17;101333.19;;;1.96;99.99
71361;BME280;59166;48.908;1.870;2023-02-15T04:24:19;101315.38;;;1.97;100.00
71361;BME280;59166;48.908;1.870;2023-02-15T04:29:20;101322.00;;;2.01;100.00
71361;BME280;59166;48.908;1.870;2023-02-15T04:34:21;101324.09;;;2.05;100.00
71361;BME280;59166;48.908;1.870;2023-02-15T04:39:23;101319.06;;;2.10;100.00
71361;BME280;59166;48.908;1.870;2023-02-15T04:44:24;101320.53;;;2.13;100.00
71361;BME280;59166;48.908;1.870;2023-02-15T04:49:25;101318.53;;;2.15;100.00
71361;BME280;59166;48.908;1.870;2023-02-15T04:54:27;101329.72;;;2.10;100.00
71361;BME280;59166;48.908;1.870;2023-02-15T04:59:27;101317.50;;;2.01;100.00
71361;BME280;59166;48.908;1.870;2023-02-15T05:04:28;101313.91;;;1.94;100.00
71361;BME280;59166;48.908;1.870;2023-02-15T05:09:30;101306.63;;;1.88;99.80
71361;BME280;59166;48.908;1.870;2023-02-15T05:14:31;101312.66;;;1.82;99.71
71361;BME280;59166;48.908;1.870;2023-02-15T05:19:32;101301.66;;;1.62;98.53
71361;BME280;59166;48.908;1.870;2023-02-15T05:24:34;101302.97;;;1.44;97.83
71361;BME280;59166;48.908;1.870;2023-02-15T05:29:34;101304.81;;;1.35;99.18
71361;BME280;59166;48.908;1.870;2023-02-15T05:34:35;101305.19;;;1.32;99.21
71361;BME280;59166;48.908;1.870;2023-02-15T05:39:37;101295.38;;;1.33;100.00
71361;BME280;59166;48.908;1.870;2023-02-15T05:44:38;101298.50;;;1.36;100.00
71361;BME280;59166;48.908;1.870;2023-02-15T05:49:38;101293.22;;;1.28;100.00
71361;BME280;59166;48.908;1.870;2023-02-15T05:54:40;101280.88;;;1.35;100.00
71361;BME280;59166;48.908;1.870;2023-02-15T05:59:41;101270.69;;;1.39;100.00
71361;BME280;59166;48.908;1.870;2023-02-15T06:04:42;101279.16;;;1.42;100.00
71361;BME280;59166;48.908;1.870;2023-02-15T06:09:44;101297.63;;;1.44;100.00
71361;BME280;59166;48.908;1.870;2023-02-15T06:14:44;101301.59;;;1.48;100.00
71361;BME280;59166;48.908;1.870;2023-02-15T06:19:45;101308.09;;;1.45;100.00
71361;BME280;59166;48.908;1.870;2023-02-15T06:24:47;101318.09;;;1.43;100.00
71361;BME280;59166;48.908;1.870;2023-02-15T06:29:48;101314.59;;;1.43;100.00
71361;BME280;59166;48.908;1.870;2023-02-15T06:34:48;101311.00;;;1.36;100.00
71361;BME280;59166;48.908;1.870;2023-02-15T06:39:50;101314.28;;;1.38;100.00
71361;BME280;59166;48.908;1.870;2023-02-15T06:44:51;101322.47;;;1.36;100.00
71361;BME280;59166;48.908;1.870;2023-02-15T06:49:51;101323.31;;;1.37;100.00
71361;BME280;59166;48.908;1.870;2023-02-15T06:54:53;101325.78;;;1.38;100.00
71361;BME280;59166;48.908;1.870;2023-02-15T06:59:54;101325.59;;;1.40;100.00
71361;BME280;59166;48.908;1.870;2023-02-15T07:04:55;101336.91;;;1.42;100.00
71361;BME280;59166;48.908;1.870;2023-02-15T07:09:57;101334.22;;;1.42;100.00
71361;BME280;59166;48.908;1.870;2023-02-15T07:14:57;101324.91;;;1.46;100.00
71361;BME280;59166;48.908;1.870;2023-02-15T07:19:58;101333.00;;;1.52;100.00
71361;BME280;59166;48.908;1.870;2023-02-15T07:25:00;101339.13;;;1.61;100.00
71361;BME280;59166;48.908;1.870;2023-02-15T07:30:01;101346.22;;;1.69;100.00
71361;BME280;59166;48.908;1.870;2023-02-15T07:35:01;101352.84;;;1.73;100.00
71361;BME280;59166;48.908;1.870;2023-02-15T07:40:05;101356.81;;;1.77;100.00
71361;BME280;59166;48.908;1.870;2023-02-15T07:45:07;101349.09;;;1.82;100.00
71361;BME280;59166;48.908;1.870;2023-02-15T07:50:08;101364.41;;;1.88;100.00
71361;BME280;59166;48.908;1.870;2023-02-15T07:55:10;101365.75;;;1.84;100.00
71361;BME280;59166;48.908;1.870;2023-02-15T08:00:12;101366.28;;;1.79;100.00
71361;BME280;59166;48.908;1.870;2023-02-15T08:05:13;101352.44;;;1.84;100.00
71361;BME280;59166;48.908;1.870;2023-02-15T08:10:15;101376.88;;;1.87;100.00
71361;BME280;59166;48.908;1.870;2023-02-15T08:15:16;101361.19;;;1.92;100.00
71361;BME280;59166;48.908;1.870;2023-02-15T08:20:17;101364.16;;;1.97;100.00
71361;BME280;59166;48.908;1.870;2023-02-15T08:25:19;101354.56;;;2.11;100.00
71361;BME280;59166;48.908;1.870;2023-02-15T08:30:19;101350.28;;;2.39;100.00
71361;BME280;59166;48.908;1.870;2023-02-15T08:35:20;101345.25;;;2.74;100.00
71361;BME280;59166;48.908;1.870;2023-02-15T08:40:22;101343.94;;;3.13;100.00
71361;BME280;59166;48.908;1.870;2023-02-15T08:45:23;101357.50;;;3.48;100.00
71361;BME280;59166;48.908;1.870;2023-02-15T08:56:03;101358.41;;;4.18;100.00
71361;BME280;59166;48.908;1.870;2023-02-15T09:01:11;101361.53;;;4.50;100.00
71361;BME280;59166;48.908;1.870;2023-02-15T09:06:12;101369.97;;;4.75;100.00
71361;BME280;59166;48.908;1.870;2023-02-15T09:11:16;101374.34;;;4.82;100.00
71361;BME280;59166;48.908;1.870;2023-02-15T09:16:18;101362.84;;;4.88;100.00
71361;BME280;59166;48.908;1.870;2023-02-15T09:21:20;101373.63;;;5.01;100.00
71361;BME280;59166;48.908;1.870;2023-02-15T09:26:23;101374.31;;;5.16;100.00
71361;BME280;59166;48.908;1.870;2023-02-15T09:31:26;101371.50;;;5.31;100.00
71361;BME280;59166;48.908;1.870;2023-02-15T09:36:30;101378.34;;;5.47;100.00
71361;BME280;59166;48.908;1.870;2023-02-15T09:42:09;101378.59;;;5.58;100.00
71361;BME280;59166;48.908;1.870;2023-02-15T09:47:32;101386.91;;;5.70;100.00
71361;BME280;59166;48.908;1.870;2023-02-15T09:52:48;101384.03;;;5.85;100.00
71361;BME280;59166;48.908;1.870;2023-02-15T09:57:58;101381.59;;;5.96;100.00
71361;BME280;59166;48.908;1.870;2023-02-15T10:03:28;101377.69;;;6.18;100.00
71361;BME280;59166;48.908;1.870;2023-02-15T10:14:38;101378.53;;;6.78;100.00
71361;BME280;59166;48.908;1.870;2023-02-15T10:19:52;101387.94;;;7.13;98.90
71361;BME280;59166;48.908;1.870;2023-02-15T10:25:20;101380.16;;;7.50;96.61
71361;BME280;59166;48.908;1.870;2023-02-15T10:30:46;101382.06;;;7.80;93.89
71361;BME280;59166;48.908;1.870;2023-02-15T10:35:53;101381.88;;;8.13;91.30
71361;BME280;59166;48.908;1.870;2023-02-15T10:41:09;101385.84;;;8.36;90.31
71361;BME280;59166;48.908;1.870;2023-02-15T10:46:26;101375.56;;;8.51;88.91
71361;BME280;59166;48.908;1.870;2023-02-15T10:51:40;101387.91;;;8.83;87.59
71361;BME280;59166;48.908;1.870;2023-02-15T10:56:51;101392.00;;;9.10;87.30
71361;BME280;59166;48.908;1.870;2023-02-15T11:02:02;101400.53;;;9.44;85.67
71361;BME280;59166;48.908;1.870;2023-02-15T11:07:15;101397.13;;;9.66;81.85
71361;BME280;59166;48.908;1.870;2023-02-15T11:12:20;101386.88;;;9.75;80.45
71361;BME280;59166;48.908;1.870;2023-02-15T11:17:28;101378.47;;;9.95;80.89
71361;BME280;59166;48.908;1.870;2023-02-15T11:22:33;101381.56;;;10.10;79.03
71361;BME280;59166;48.908;1.870;2023-02-15T11:27:35;101374.69;;;10.25;80.67
71361;BME280;59166;48.908;1.870;2023-02-15T11:32:40;101376.47;;;10.31;80.23
71361;BME280;59166;48.908;1.870;2023-02-15T11:37:46;101360.72;;;10.40;76.41
71361;BME280;59166;48.908;1.870;2023-02-15T11:42:51;101376.25;;;10.56;77.45
71361;BME280;59166;48.908;1.870;2023-02-15T11:47:54;101370.03;;;10.67;75.67
71361;BME280;59166;48.908;1.870;2023-02-15T11:52:58;101372.88;;;10.96;76.78
71361;BME280;59166;48.908;1.870;2023-02-15T11:58:05;101371.19;;;11.18;73.42
71361;BME280;59166;48.908;1.870;2023-02-15T12:03:16;101368.69;;;11.40;70.05
71361;BME280;59166;48.908;1.870;2023-02-15T12:08:19;101362.22;;;11.69;65.37
71361;BME280;59166;48.908;1.870;2023-02-15T12:13:21;101365.41;;;11.94;64.61
71361;BME280;59166;48.908;1.870;2023-02-15T12:18:34;101365.09;;;12.07;63.18
71361;BME280;59166;48.908;1.870;2023-02-15T12:23:42;101366.81;;;12.13;63.76
71361;BME280;59166;48.908;1.870;2023-02-15T12:28:49;101361.50;;;12.18;60.69
71361;BME280;59166;48.908;1.870;2023-02-15T12:33:53;101360.69;;;12.18;62.60
71361;BME280;59166;48.908;1.870;2023-02-15T12:39:24;101351.00;;;12.22;62.35
71361;BME280;59166;48.908;1.870;2023-02-15T12:44:26;101342.81;;;12.33;61.72
71361;BME280;59166;48.908;1.870;2023-02-15T12:49:30;101351.19;;;12.49;64.57
71361;BME280;59166;48.908;1.870;2023-02-15T12:54:36;101343.47;;;12.57;65.17
71361;BME280;59166;48.908;1.870;2023-02-15T12:59:48;101341.66;;;12.63;64.91
71361;BME280;59166;48.908;1.870;2023-02-15T13:04:51;101344.94;;;12.65;65.03
71361;BME280;59166;48.908;1.870;2023-02-15T13:09:52;101340.16;;;12.72;65.35
71361;BME280;59166;48.908;1.870;2023-02-15T13:14:54;101339.34;;;12.71;63.22
71361;BME280;59166;48.908;1.870;2023-02-15T13:20:00;101340.03;;;12.83;66.39
71361;BME280;59166;48.908;1.870;2023-02-15T13:25:05;101333.69;;;12.95;63.62
71361;BME280;59166;48.908;1.870;2023-02-15T13:30:19;101331.56;;;12.97;64.74
71361;BME280;59166;48.908;1.870;2023-02-15T13:35:28;101315.03;;;12.98;60.87
71361;BME280;59166;48.908;1.870;2023-02-15T13:40:35;101312.97;;;13.05;62.05
71361;BME280;59166;48.908;1.870;2023-02-15T13:45:41;101304.81;;;13.05;63.91
71361;BME280;59166;48.908;1.870;2023-02-15T13:51:00;101308.47;;;13.16;61.41
71361;BME280;59166;48.908;1.870;2023-02-15T13:56:07;101299.59;;;13.20;62.21
71361;BME280;59166;48.908;1.870;2023-02-15T14:01:11;101304.81;;;13.27;62.44
71361;BME280;59166;48.908;1.870;2023-02-15T14:06:28;101306.56;;;13.38;60.42
71361;BME280;59166;48.908;1.870;2023-02-15T14:11:39;101297.66;;;13.43;60.19
71361;BME280;59166;48.908;1.870;2023-02-15T14:16:51;101288.75;;;13.47;62.10
71361;BME280;59166;48.908;1.870;2023-02-15T14:22:20;101286.59;;;13.49;59.30
71361;BME280;59166;48.908;1.870;2023-02-15T14:27:27;101287.53;;;13.60;60.50
71361;BME280;59166;48.908;1.870;2023-02-15T14:32:39;101286.25;;;13.67;58.86
71361;BME280;59166;48.908;1.870;2023-02-15T14:37:48;101280.91;;;13.72;58.96
71361;BME280;59166;48.908;1.870;2023-02-15T14:42:56;101282.84;;;13.77;58.12
71361;BME280;59166;48.908;1.870;2023-02-15T14:48:05;101283.16;;;13.80;57.39
71361;BME280;59166;48.908;1.870;2023-02-15T14:53:25;101275.94;;;13.96;57.50
71361;BME280;59166;48.908;1.870;2023-02-15T14:58:32;101275.13;;;13.96;56.75
71361;BME280;59166;48.908;1.870;2023-02-15T15:03:33;101265.47;;;14.10;55.92
71361;BME280;59166;48.908;1.870;2023-02-15T15:08:38;101267.72;;;14.18;55.61
71361;BME280;59166;48.908;1.870;2023-02-15T15:13:55;101274.03;;;14.28;54.59
71361;BME280;59166;48.908;1.870;2023-02-15T15:18:56;101263.56;;;14.10;53.90
71361;BME280;59166;48.908;1.870;2023-02-15T15:23:59;101260.22;;;13.98;54.38
71361;BME280;59166;48.908;1.870;2023-02-15T15:29:00;101265.97;;;13.75;55.87
71361;BME280;59166;48.908;1.870;2023-02-15T15:34:21;101265.41;;;13.46;57.00
71361;BME280;59166;48.908;1.870;2023-02-15T15:39:50;101250.16;;;13.40;57.54
71361;BME280;59166;48.908;1.870;2023-02-15T15:45:14;101253.38;;;13.37;58.89
71361;BME280;59166;48.908;1.870;2023-02-15T15:50:23;101238.47;;;13.39;58.96
71361;BME280;59166;48.908;1.870;2023-02-15T15:55:26;101242.03;;;13.45;59.36
71361;BME280;59166;48.908;1.870;2023-02-15T16:00:34;101240.69;;;13.48;59.84
71361;BME280;59166;48.908;1.870;2023-02-15T16:05:36;101242.56;;;13.42;59.58
71361;BME280;59166;48.908;1.870;2023-02-15T16:10:40;101241.94;;;13.35;60.45
71361;BME280;59166;48.908;1.870;2023-02-15T16:15:44;101244.31;;;13.26;62.08
71361;BME280;59166;48.908;1.870;2023-02-15T16:20:50;101241.47;;;13.16;62.66
71361;BME280;59166;48.908;1.870;2023-02-15T16:26:00;101255.44;;;13.03;63.21
71361;BME280;59166;48.908;1.870;2023-02-15T16:31:11;101248.75;;;12.89;63.58
71361;BME280;59166;48.908;1.870;2023-02-15T16:36:20;101251.84;;;12.76;64.18
71361;BME280;59166;48.908;1.870;2023-02-15T16:41:25;101259.25;;;12.64;64.91
71361;BME280;59166;48.908;1.870;2023-02-15T16:46:28;101262.41;;;12.56;65.47
71361;BME280;59166;48.908;1.870;2023-02-15T16:51:32;101259.47;;;12.41;64.80
71361;BME280;59166;48.908;1.870;2023-02-15T16:56:35;101255.53;;;12.31;65.18
71361;BME280;59166;48.908;1.870;2023-02-15T17:01:36;101255.59;;;12.20;64.40
71361;BME280;59166;48.908;1.870;2023-02-15T17:06:37;101255.94;;;12.07;64.71
71361;BME280;59166;48.908;1.870;2023-02-15T17:11:41;101261.19;;;11.97;64.86
71361;BME280;59166;48.908;1.870;2023-02-15T17:16:43;101262.56;;;11.82;64.69
71361;BME280;59166;48.908;1.870;2023-02-15T17:21:49;101260.78;;;11.71;65.09
71361;BME280;59166;48.908;1.870;2023-02-15T17:26:54;101275.91;;;11.56;65.90
71361;BME280;59166;48.908;1.870;2023-02-15T17:31:56;101282.09;;;11.40;66.76
71361;BME280;59166;48.908;1.870;2023-02-15T17:36:58;101288.28;;;11.23;67.48
71361;BME280;59166;48.908;1.870;2023-02-15T17:42:00;101291.00;;;11.12;67.89
71361;BME280;59166;48.908;1.870;2023-02-15T17:47:00;101292.94;;;11.00;68.55
71361;BME280;59166;48.908;1.870;2023-02-15T17:52:01;101287.53;;;10.88;69.03
71361;BME280;59166;48.908;1.870;2023-02-15T17:57:07;101281.34;;;10.76;70.33
71361;BME280;59166;48.908;1.870;2023-02-15T18:02:11;101288.16;;;10.67;71.63
71361;BME280;59166;48.908;1.870;2023-02-15T18:07:12;101290.16;;;10.60;72.47
71361;BME280;59166;48.908;1.870;2023-02-15T18:12:18;101284.41;;;10.56;72.96
71361;BME280;59166;48.908;1.870;2023-02-15T18:17:24;101286.16;;;10.51;73.17
71361;BME280;59166;48.908;1.870;2023-02-15T18:22:27;101284.41;;;10.45;73.60
71361;BME280;59166;48.908;1.870;2023-02-15T18:27:30;101292.97;;;10.42;73.29
71361;BME280;59166;48.908;1.870;2023-02-15T18:32:32;101295.22;;;10.33;73.78
71361;BME280;59166;48.908;1.870;2023-02-15T18:37:35;101294.25;;;10.27;73.94
71361;BME280;59166;48.908;1.870;2023-02-15T18:42:37;101304.59;;;10.19;74.12
71361;BME280;59166;48.908;1.870;2023-02-15T18:47:37;101297.88;;;10.10;73.79
71361;BME280;59166;48.908;1.870;2023-02-15T18:52:38;101305.72;;;10.00;74.29
71361;BME280;59166;48.908;1.870;2023-02-15T18:57:40;101313.56;;;9.90;74.78
71361;BME280;59166;48.908;1.870;2023-02-15T19:02:41;101307.38;;;9.89;74.86
71361;BME280;59166;48.908;1.870;2023-02-15T19:07:42;101316.47;;;9.76;75.36
71361;BME280;59166;48.908;1.870;2023-02-15T19:12:44;101318.00;;;9.72;75.05
71361;BME280;59166;48.908;1.870;2023-02-15T19:17:45;101316.44;;;9.65;75.28
71361;BME280;59166;48.908;1.870;2023-02-15T19:22:47;101309.69;;;9.56;75.77
71361;BME280;59166;48.908;1.870;2023-02-15T19:27:50;101316.53;;;9.58;75.66
71361;BME280;59166;48.908;1.870;2023-02-15T19:32:51;101313.69;;;9.53;75.90
71361;BME280;59166;48.908;1.870;2023-02-15T19:37:54;101318.25;;;9.53;75.41
71361;BME280;59166;48.908;1.870;2023-02-15T19:42:57;101319.03;;;9.42;75.68
71361;BME280;59166;48.908;1.870;2023-02-15T19:47:59;101319.66;;;9.25;76.50
71361;BME280;59166;48.908;1.870;2023-02-15T19:53:01;101327.44;;;9.15;76.71
71361;BME280;59166;48.908;1.870;2023-02-15T19:58:08;101320.50;;;9.08;77.48
71361;BME280;59166;48.908;1.870;2023-02-15T20:03:10;101327.03;;;9.00;77.95
71361;BME280;59166;48.908;1.870;2023-02-15T20:08:15;101321.34;;;8.90;78.35
71361;BME280;59166;48.908;1.870;2023-02-15T20:13:18;101322.16;;;8.91;78.36
71361;BME280;59166;48.908;1.870;2023-02-15T20:18:19;101332.09;;;8.90;78.06
71361;BME280;59166;48.908;1.870;2023-02-15T20:23:21;101327.97;;;8.88;78.02
71361;BME280;59166;48.908;1.870;2023-02-15T20:28:26;101320.53;;;8.83;78.69
71361;BME280;59166;48.908;1.870;2023-02-15T20:33:27;101329.16;;;8.73;79.49
71361;BME280;59166;48.908;1.870;2023-02-15T20:38:30;101326.66;;;8.72;78.95
71361;BME280;59166;48.908;1.870;2023-02-15T20:43:33;101328.59;;;8.65;79.61
71361;BME280;59166;48.908;1.870;2023-02-15T20:48:33;101330.84;;;8.68;79.17
71361;BME280;59166;48.908;1.870;2023-02-15T20:53:34;101331.91;;;8.67;79.18
71361;BME280;59166;48.908;1.870;2023-02-15T20:58:36;101332.44;;;8.57;79.73
71361;BME280;59166;48.908;1.870;2023-02-15T21:03:37;101340.56;;;8.51;80.34
71361;BME280;59166;48.908;1.870;2023-02-15T21:08:38;101339.81;;;8.44;80.83
71361;BME280;59166;48.908;1.870;2023-02-15T21:13:40;101335.91;;;8.40;80.25
71361;BME280;59166;48.908;1.870;2023-02-15T21:18:40;101334.47;;;8.37;81.18
71361;BME280;59166;48.908;1.870;2023-02-15T21:23:42;101334.34;;;8.25;81.09
71361;BME280;59166;48.908;1.870;2023-02-15T21:28:45;101322.63;;;8.20;81.30
71361;BME280;59166;48.908;1.870;2023-02-15T21:33:46;101333.19;;;8.15;81.18
71361;BME280;59166;48.908;1.870;2023-02-15T21:38:47;101326.41;;;8.12;82.24
71361;BME280;59166;48.908;1.870;2023-02-15T21:43:49;101321.28;;;8.04;82.94
71361;BME280;59166;48.908;1.870;2023-02-15T21:48:50;101323.38;;;8.02;82.96
71361;BME280;59166;48.908;1.870;2023-02-15T21:53:50;101330.81;;;8.00;82.87
71361;BME280;59166;48.908;1.870;2023-02-15T21:58:52;101331.88;;;7.99;83.26
71361;BME280;59166;48.908;1.870;2023-02-15T22:03:54;101335.41;;;8.00;83.45
71361;BME280;59166;48.908;1.870;2023-02-15T22:08:56;101331.84;;;8.06;82.39
71361;BME280;59166;48.908;1.870;2023-02-15T22:13:58;101328.13;;;8.00;82.76
71361;BME280;59166;48.908;1.870;2023-02-15T22:18:59;101340.59;;;7.95;83.38
71361;BME280;59166;48.908;1.870;2023-02-15T22:23:59;101338.16;;;7.87;83.34
71361;BME280;59166;48.908;1.870;2023-02-15T22:29:02;101346.06;;;7.82;83.39
71361;BME280;59166;48.908;1.870;2023-02-15T22:34:02;101345.50;;;7.73;83.32
71361;BME280;59166;48.908;1.870;2023-02-15T22:39:03;101344.06;;;7.70;83.56
71361;BME280;59166;48.908;1.870;2023-02-15T22:44:05;101342.25;;;7.64;83.85
71361;BME280;59166;48.908;1.870;2023-02-15T22:49:11;101345.16;;;7.63;84.05
71361;BME280;59166;48.908;1.870;2023-02-15T22:54:12;101348.09;;;7.55;84.26
71361;BME280;59166;48.908;1.870;2023-02-15T22:59:17;101337.19;;;7.43;85.37
71361;BME280;59166;48.908;1.870;2023-02-15T23:04:20;101334.31;;;7.38;85.67
71361;BME280;59166;48.908;1.870;2023-02-15T23:09:21;101328.72;;;7.40;85.69
71361;BME280;59166;48.908;1.870;2023-02-15T23:14:25;101336.38;;;7.36;85.80
71361;BME280;59166;48.908;1.870;2023-02-15T23:19:26;101340.13;;;7.35;85.94
71361;BME280;59166;48.908;1.870;2023-02-15T23:24:28;101341.34;;;7.33;86.27
71361;BME280;59166;48.908;1.870;2023-02-15T23:29:31;101345.28;;;7.37;86.18
71361;BME280;59166;48.908;1.870;2023-02-15T23:34:31;101344.66;;;7.35;86.05
71361;BME280;59166;48.908;1.870;2023-02-15T23:39:32;101342.63;;;7.30;86.31
71361;BME280;59166;48.908;1.870;2023-02-15T23:44:34;101331.47;;;7.26;86.17
71361;BME280;59166;48.908;1.870;2023-02-15T23:49:35;101326.09;;;7.26;86.73
71361;BME280;59166;48.908;1.870;2023-02-15T23:54:36;101342.44;;;7.25;86.90
71361;BME280;59166;48.908;1.870;2023-02-15T23:59:40;101344.50;;;7.23;86.90
